Data for 01/14/2017

Time Sea-Level Adjusted Pressure Absolute Pressure Temperature Relative Humidity Dew Point   
(mb) (inHg) (mb) (inHg) (C) (F) (%) (C) (F)
00:05 1028 30.36 857 25.31 -12.3 9.9 77 -15.5 4.1
00:10 1028 30.36 857 25.31 -12.3 9.9 76 -15.6 3.9
00:15 1028 30.36 857 25.31 -12.4 9.6 74 -16.2 2.9
00:20 1028 30.36 857 25.31 -12.8 8.9 78 -16 3.3
00:25 1028 30.36 857 25.31 -12.9 8.7 78 -16 3.1
00:30 1028 30.36 857 25.31 -13 8.5 79 -16 3.1
00:35 1028 30.36 857 25.31 -13.3 8.1 82 -15.8 3.6
00:40 1028 30.36 857 25.31 -13.1 8.4 83 -15.4 4.3
00:45 1028 30.36 857 25.31 -12.7 9.1 82 -15.2 4.7
00:50 1028 30.36 857 25.31 -12.5 9.5 80 -15.3 4.5
00:55 1028 30.36 857 25.31 -12.6 9.3 77 -15.9 3.4
01:00 1028 30.36 857 25.31 -13.3 8.1 80 -16 3.3
01:05 1028 30.36 857 25.31 -13.7 7.4 79 -16.5 2.3
01:10 1028 30.36 857 25.31 -13.8 7.2 81 -16.4 2.5
01:15 1028 30.36 857 25.31 -13.5 7.7 83 -15.9 3.4
01:20 1028 30.36 857 25.31 -13 8.6 80 -15.8 3.5
01:25 1028 30.36 857 25.31 -12.8 8.9 79 -15.8 3.6
01:30 1028 30.36 857 25.31 -12.6 9.2 78 -15.7 3.7
01:35 1028 30.36 857 25.31 -12.5 9.5 78 -15.6 3.9
01:40 1028 30.36 857 25.31 -12.8 9 80 -15.5 4.1
01:45 1028 30.36 857 25.31 -13.1 8.5 78 -16.1 3.1
01:50 1028 30.36 857 25.31 -13.5 7.7 81 -16.1 3
01:55 1028 30.36 857 25.31 -13.2 8.2 80 -16 3.2
02:00 1028 30.36 857 25.31 -13.2 8.3 79 -16.1 3
02:05 1028 30.36 857 25.31 -13.8 7.1 80 -16.6 2.2
02:10 1028 30.36 857 25.31 -14.2 6.4 81 -16.8 1.7
02:15 1028 30.36 857 25.31 -13.7 7.3 80 -16.5 2.3
02:20 1028 30.36 857 25.31 -13.2 8.2 78 -16.3 2.6
02:25 1028 30.36 857 25.31 -13.5 7.6 79 -16.5 2.3
02:30 1028 30.36 857 25.31 -13.9 7 79 -16.7 1.9
02:35 1028 30.36 857 25.31 -13.9 7 79 -16.8 1.8
02:40 1028 30.36 857 25.31 -13.7 7.4 80 -16.5 2.4
02:45 1028 30.36 857 25.31 -13.2 8.2 78 -16.2 2.8
02:50 1028 30.36 857 25.31 -13.2 8.2 78 -16.4 2.6
02:55 1028 30.36 857 25.31 -13.5 7.7 78 -16.5 2.2
03:00 1028 30.36 857 25.31 -13.6 7.4 77 -16.9 1.6
03:05 1028 30.36 857 25.31 -13.4 7.9 76 -16.8 1.7
03:10 1028 30.36 857 25.31 -13.5 7.7 77 -16.7 2
03:15 1028 30.36 857 25.31 -13.6 7.5 78 -16.7 2
03:20 1028 30.36 857 25.31 -13.1 8.4 77 -16.3 2.6
03:25 1028 30.36 857 25.31 -12.7 9.2 76 -16.1 3
03:30 1028 30.36 857 25.31 -12.3 9.9 74 -16 3.2
03:35 1028 30.36 857 25.31 -12.3 9.9 74 -15.9 3.3
03:40 1028 30.36 857 25.31 -12.4 9.8 74 -16 3.2
03:45 1028 30.36 857 25.31 -12.5 9.4 74 -16.2 2.9
03:50 1028 30.36 857 25.31 -12.6 9.3 76 -16 3.2
03:55 1028 30.36 857 25.31 -12 10.4 74 -15.8 3.6
04:00 1028 30.36 857 25.31 -11.8 10.9 73 -15.7 3.7
04:05 1028 30.36 857 25.31 -11.9 10.6 72 -15.9 3.3
04:10 1028 30.36 857 25.31 -12.1 10.2 72 -16.1 3
04:15 1028 30.36 857 25.31 -12.3 10 73 -16.2 2.8
04:20 1028 30.36 858 25.34 -12.6 9.4 73 -16.4 2.5
04:25 1028 30.36 858 25.34 -13.1 8.4 74 -16.9 1.6
04:30 1028 30.36 857 25.31 -13.9 7.1 76 -17.3 0.9
04:35 1028 30.36 857 25.31 -14.3 6.2 77 -17.5 0.5
04:40 1028 30.36 857 25.31 -14.6 5.8 77 -17.7 0.1
04:45 1028 30.36 858 25.34 -14.7 5.6 78 -17.7 0.1
04:50 1028 30.36 857 25.31 -14.8 5.4 79 -17.6 0.3
04:55 1028 30.36 857 25.31 -14.8 5.4 80 -17.5 0.4
05:00 1028 30.36 858 25.34 -14.9 5.2 80 -17.6 0.3
05:05 1028 30.36 858 25.34 -14.9 5.1 81 -17.4 0.6
05:10 1028 30.36 858 25.34 -15 5 81 -17.5 0.5
05:15 1028 30.36 858 25.34 -14.9 5.1 83 -17.3 0.9
05:20 1028 30.36 858 25.34 -14.8 5.3 83 -17.1 1.2
05:25 1028 30.36 858 25.34 -14.8 5.4 84 -16.9 1.7
05:30 1028 30.36 858 25.34 -14.6 5.6 85 -16.7 1.9
05:35 1028 30.36 858 25.34 -14.6 5.8 84 -16.7 2
05:40 1028 30.36 858 25.34 -14.4 6 85 -16.4 2.4
05:45 1028 30.36 858 25.34 -14.2 6.4 86 -16.1 3
05:50 1028 30.36 858 25.34 -14.1 6.7 84 -16.2 2.9
05:55 1029 30.39 858 25.34 -14.4 6.2 83 -16.7 1.9
06:00 1028 30.36 858 25.34 -14.8 5.4 84 -16.9 1.6
06:05 1028 30.36 858 25.34 -14.7 5.6 84 -16.8 1.8
06:10 1028 30.36 857 25.31 -14.6 5.8 83 -16.8 1.7
06:15 1028 30.36 857 25.31 -14.5 5.9 79 -17.4 0.7
06:20 1028 30.36 857 25.31 -14.7 5.6 84 -16.9 1.7
06:25 1028 30.36 857 25.31 -14.1 6.7 82 -16.5 2.4
06:30 1028 30.36 857 25.31 -13.9 7 77 -17.2 1.1
06:35 1028 30.36 857 25.31 -15.1 4.8 81 -17.8 0
06:40 1028 30.36 857 25.31 -15 4.9 80 -17.8 -0
06:45 1028 30.36 857 25.31 -15.1 4.7 80 -17.8 -0.1
06:50 1028 30.36 857 25.31 -15.4 4.2 80 -18.1 -0.6
06:55 1028 30.36 857 25.31 -15.3 4.4 81 -17.9 -0.2
07:00 1028 30.36 857 25.31 -14.7 5.6 80 -17.4 0.7
07:05 1028 30.36 857 25.31 -14.3 6.3 79 -17.3 0.9
07:10 1028 30.36 857 25.31 -14.4 6.1 78 -17.4 0.7
07:15 1028 30.36 857 25.31 -14.2 6.5 78 -17.3 0.9
07:20 1028 30.36 857 25.31 -14.1 6.6 77 -17.3 0.9
07:25 1028 30.36 857 25.31 -14.3 6.3 77 -17.4 0.6
07:30 1028 30.36 857 25.31 -14.1 6.7 77 -17.3 0.9
07:35 1028 30.36 857 25.31 -13.7 7.3 77 -17 1.4
07:40 1028 30.36 857 25.31 -13.7 7.4 76 -17 1.4
07:45 1028 30.36 857 25.31 -13.4 7.9 75 -16.9 1.5
07:50 1028 30.36 857 25.31 -13.1 8.5 74 -16.8 1.8
07:55 1028 30.36 857 25.31 -12.9 8.9 74 -16.6 2.2
08:00 1028 30.36 857 25.31 -12.6 9.4 73 -16.4 2.4
08:05 1028 30.36 857 25.31 -12.4 9.8 73 -16.2 2.8
08:10 1028 30.36 857 25.31 -12.2 10 73 -16.1 3
08:15 1028 30.36 858 25.34 -12.4 9.7 73 -16.3 2.7
08:20 1028 30.36 858 25.34 -12.6 9.3 73 -16.4 2.4
08:25 1028 30.36 858 25.34 -13 8.5 74 -16.8 1.8
08:30 1028 30.36 858 25.34 -13.6 7.6 76 -17 1.4
08:35 1028 30.36 858 25.34 -13.5 7.8 74 -17.2 1.1
08:40 1028 30.36 858 25.34 -13.6 7.6 75 -17.1 1.2
08:45 1028 30.36 858 25.34 -13.6 7.6 75 -17.2 1.1
08:50 1028 30.36 858 25.34 -13.8 7.1 75 -17.4 0.7
08:55 1028 30.36 858 25.34 -13.7 7.3 74 -17.4 0.7
09:00 1028 30.36 858 25.34 -13.8 7.2 75 -17.2 1
09:05 1029 30.39 858 25.34 -14 6.8 72 -18 -0.4
09:10 1029 30.39 858 25.34 -14.9 5.3 77 -18 -0.4
09:15 1029 30.39 858 25.34 -14.7 5.6 77 -17.9 -0.2
09:20 1029 30.39 858 25.34 -14.4 6.1 78 -17.5 0.5
09:25 1029 30.39 858 25.34 -13.8 7.1 75 -17.3 0.9
09:30 1029 30.39 858 25.34 -13.1 8.3 72 -17.2 1
09:35 1029 30.39 858 25.34 -13.1 8.5 73 -16.9 1.5
09:40 1029 30.39 858 25.34 -12.6 9.4 70 -17 1.4
09:45 1029 30.39 858 25.34 -12.5 9.5 69 -17.1 1.2
09:50 1029 30.39 858 25.34 -12.7 9.1 70 -17.1 1.2
09:55 1029 30.39 858 25.34 -13 8.6 71 -17.2 1.1
10:00 1029 30.39 858 25.34 -12.9 8.8 71 -17.2 1.1
10:05 1029 30.39 858 25.34 -12.9 8.8 71 -17.1 1.2
10:10 1029 30.39 858 25.34 -12.8 9 70 -17.2 1
10:15 1029 30.39 858 25.34 -12.6 9.3 69 -17.1 1.2
10:20 1029 30.39 858 25.34 -12.5 9.5 69 -17.1 1.3
10:25 1029 30.39 858 25.34 -12.3 10 68 -17 1.3
10:30 1029 30.39 858 25.34 -12.3 9.8 69 -16.8 1.7
10:35 1029 30.39 858 25.34 -12.6 9.3 72 -16.7 1.9
10:40 1029 30.39 858 25.34 -12.4 9.7 72 -16.5 2.3
10:45 1029 30.39 858 25.34 -12 10.5 70 -16.3 2.6
10:50 1029 30.39 858 25.34 -11.6 11 70 -16.1 3
10:55 1029 30.39 858 25.34 -11.5 11.3 69 -16.1 3
11:00 1029 30.39 858 25.34 -11.2 11.9 68 -16 3.2
11:05 1029 30.39 858 25.34 -11.2 11.8 69 -15.8 3.5
11:10 1029 30.39 858 25.34 -11.1 12.1 68 -15.9 3.4
11:15 1029 30.39 858 25.34 -10.9 12.4 69 -15.6 4
11:20 1029 30.39 858 25.34 -10.9 12.3 72 -15.1 4.8
11:25 1029 30.39 858 25.34 -11 12.2 72 -15.2 4.6
11:30 1029 30.39 858 25.34 -11 12.2 70 -15.4 4.3
11:35 1029 30.39 858 25.34 -11 12.2 70 -15.4 4.2
11:40 1029 30.39 858 25.34 -10.8 12.5 69 -15.5 4.2
11:45 1029 30.39 858 25.34 -10.4 13.3 67 -15.4 4.3
11:50 1029 30.39 858 25.34 -9.7 14.6 64 -15.3 4.5
11:55 1029 30.39 858 25.34 -9 15.8 62 -14.9 5.1
12:00 1029 30.39 858 25.34 -8.7 16.4 61 -14.8 5.3
12:05 1029 30.39 858 25.34 -8.6 16.5 60 -15.1 4.9
12:10 1028 30.36 858 25.34 -7.6 18.4 56 -15 5.1
12:15 1028 30.36 858 25.34 -7.3 18.9 56 -14.7 5.6
12:20 1028 30.36 858 25.34 -8.1 17.4 58 -15 5
12:25 1028 30.36 857 25.31 -7.8 18.1 57 -14.9 5.1
12:30 1028 30.36 857 25.31 -7.6 18.4 56 -14.8 5.3
12:35 1028 30.36 857 25.31 -7 19.3 54 -15 5.1
12:40 1028 30.36 857 25.31 -6.6 20.2 53 -14.6 5.7
12:45 1028 30.36 857 25.31 -7.4 18.8 56 -14.8 5.3
12:50 1028 30.36 857 25.31 -7.5 18.4 56 -14.8 5.3
12:55 1028 30.36 857 25.31 -7.3 18.9 54 -15 5
13:00 1028 30.36 857 25.31 -7.3 18.9 55 -14.9 5.2
13:05 1028 30.36 857 25.31 -6.6 20.2 51 -15 5
13:10 1028 30.36 857 25.31 -6.2 20.8 50 -15 4.9
13:15 1028 30.36 857 25.31 -6.3 20.7 50 -15.1 4.9
13:20 1028 30.36 857 25.31 -6.3 20.6 51 -15 5
13:25 1027 30.33 857 25.31 -6.5 20.4 51 -15.1 4.8
13:30 1027 30.33 857 25.31 -6.2 20.8 50 -15.2 4.7
13:35 1027 30.33 856 25.28 -6.6 20.2 52 -14.8 5.3
13:40 1027 30.33 856 25.28 -7.6 18.3 55 -15.3 4.5
13:45 1027 30.33 856 25.28 -7.4 18.8 54 -15.2 4.6
13:50 1027 30.33 856 25.28 -7.3 18.9 55 -14.9 5.1
13:55 1027 30.33 856 25.28 -7.8 17.9 56 -15 4.9
14:00 1027 30.33 856 25.28 -7.9 17.7 57 -15.1 4.9
14:05 1027 30.33 856 25.28 -7.7 18.2 55 -15.2 4.7
14:10 1027 30.33 856 25.28 -7.3 18.9 53 -15.2 4.6
14:15 1027 30.33 856 25.28 -7 19.4 53 -15 5
14:20 1027 30.33 856 25.28 -6.6 20.2 51 -15 5
14:25 1026 30.3 856 25.28 -5.9 21.5 49 -14.9 5.2
14:30 1026 30.3 856 25.28 -6 21.2 51 -14.5 5.9
14:35 1026 30.3 856 25.28 -6 21.2 51 -14.6 5.8
14:40 1026 30.3 856 25.28 -5.8 21.5 51 -14.4 6
14:45 1026 30.3 855 25.25 -5.1 22.8 46 -14.9 5.1
14:50 1026 30.3 855 25.25 -4.4 24.1 44 -14.8 5.4
14:55 1026 30.3 855 25.25 -4.5 24 46 -14.5 6
15:00 1026 30.3 855 25.25 -5.3 22.5 50 -14.2 6.4
15:05 1026 30.3 855 25.25 -5.4 22.2 47 -15 5
15:10 1026 30.3 855 25.25 -5 23.1 45 -15 5
15:15 1026 30.3 855 25.25 -4.5 23.8 44 -15 4.9
15:20 1026 30.3 855 25.25 -4.3 24.2 44 -14.9 5.2
15:25 1026 30.3 855 25.25 -4.7 23.5 46 -14.7 5.5
15:30 1026 30.3 855 25.25 -4.8 23.3 46 -14.8 5.3
15:35 1026 30.3 855 25.25 -4.7 23.5 45 -14.9 5.2
15:40 1026 30.3 855 25.25 -5.1 22.9 47 -14.6 5.7
15:45 1026 30.3 855 25.25 -5.2 22.6 47 -14.9 5.2
15:50 1026 30.3 856 25.28 -5.3 22.5 49 -14.5 5.9
15:55 1026 30.3 856 25.28 -5.7 21.7 48 -15 5.1
16:00 1026 30.3 856 25.28 -5.5 22 49 -14.8 5.4
16:05 1026 30.3 856 25.28 -5.7 21.7 48 -15.1 4.9
16:10 1026 30.3 856 25.28 -6 21.2 51 -14.7 5.6
16:15 1026 30.3 856 25.28 -6.4 20.6 51 -15 5
16:20 1027 30.33 856 25.28 -6.5 20.2 51 -15 5
16:25 1027 30.33 856 25.28 -6.7 20 51 -15.1 4.8
16:30 1027 30.33 856 25.28 -6.7 19.9 53 -14.9 5.2
16:35 1026 30.3 856 25.28 -6.9 19.6 53 -15 5
16:40 1026 30.3 856 25.28 -7.1 19.3 53 -15.1 4.9
16:45 1026 30.3 856 25.28 -6.8 19.8 51 -15.3 4.5
16:50 1026 30.3 856 25.28 -6.4 20.5 50 -15.3 4.5
16:55 1026 30.3 856 25.28 -6.4 20.5 51 -14.9 5.3
17:00 1026 30.3 856 25.28 -6.7 20 52 -15 5
17:05 1026 30.3 855 25.25 -6.6 20.1 51 -15.1 4.8
17:10 1026 30.3 855 25.25 -6.5 20.3 50 -15.3 4.4
17:15 1026 30.3 855 25.25 -6.4 20.4 51 -15 5
17:20 1026 30.3 855 25.25 -7 19.5 52 -15.3 4.5
17:25 1026 30.3 855 25.25 -6.6 20.1 51 -15.2 4.7
17:30 1026 30.3 855 25.25 -6.9 19.5 52 -15.2 4.7
17:35 1026 30.3 855 25.25 -7.1 19.2 54 -14.9 5.2
17:40 1026 30.3 855 25.25 -7.2 19 55 -14.9 5.2
17:45 1026 30.3 855 25.25 -7.5 18.5 56 -14.8 5.3
17:50 1026 30.3 855 25.25 -7.6 18.2 56 -15 5
17:55 1026 30.3 855 25.25 -7.8 18 57 -14.9 5.2
18:00 1026 30.3 855 25.25 -8.1 17.4 59 -14.8 5.3
18:05 1026 30.3 855 25.25 -8.6 16.6 61 -14.7 5.5
18:10 1026 30.3 855 25.25 -8.8 16.2 62 -14.9 5.3
18:15 1026 30.3 855 25.25 -9 15.8 63 -14.8 5.4
18:20 1026 30.3 855 25.25 -9.3 15.3 63 -15 4.9
18:25 1026 30.3 855 25.25 -9.4 15.1 65 -14.9 5.2
18:30 1026 30.3 855 25.25 -9.6 14.7 65 -15 5
18:35 1026 30.3 855 25.25 -9.8 14.3 66 -15.1 4.9
18:40 1026 30.3 855 25.25 -9.8 14.3 65 -15.3 4.4
18:45 1026 30.3 855 25.25 -9.8 14.4 64 -15.3 4.4
18:50 1026 30.3 855 25.25 -10 14.1 65 -15.4 4.2
18:55 1026 30.3 855 25.25 -10.1 13.9 65 -15.4 4.3
19:00 1026 30.3 855 25.25 -10 13.9 65 -15.3 4.4
19:05 1026 30.3 855 25.25 -10 14.1 65 -15.4 4.3
19:10 1026 30.3 855 25.25 -10 14 65 -15.4 4.3
19:15 1026 30.3 855 25.25 -10.2 13.7 66 -15.4 4.2
19:20 1026 30.3 855 25.25 -10.3 13.4 66 -15.4 4.2
19:25 1026 30.3 855 25.25 -9.9 14.1 65 -15.4 4.3
19:30 1026 30.3 855 25.25 -9.9 14.2 66 -15.1 4.8
19:35 1026 30.3 855 25.25 -10.3 13.4 67 -15.2 4.6
19:40 1026 30.3 855 25.25 -10.5 13.1 68 -15.4 4.3
19:45 1026 30.3 855 25.25 -10.2 13.6 65 -15.5 4
19:50 1026 30.3 855 25.25 -10.1 13.8 66 -15.4 4.4
19:55 1025 30.27 855 25.25 -9.9 14.2 65 -15.3 4.4
20:00 1025 30.27 855 25.25 -9.9 14.1 65 -15.3 4.5
20:05 1025 30.27 855 25.25 -10.1 13.8 66 -15.3 4.5
20:10 1025 30.27 855 25.25 -10.4 13.3 67 -15.4 4.4
20:15 1025 30.27 855 25.25 -10.6 12.9 67 -15.6 4
20:20 1025 30.27 855 25.25 -10.6 13 68 -15.5 4.2
20:25 1025 30.27 854 25.22 -10.5 13 68 -15.3 4.4
20:30 1025 30.27 854 25.22 -10.8 12.6 69 -15.4 4.3
20:35 1025 30.27 854 25.22 -10.7 12.7 68 -15.5 4.2
20:40 1025 30.27 854 25.22 -10.8 12.6 69 -15.5 4.2
20:45 1025 30.27 854 25.22 -10.5 13.1 67 -15.5 4.2
20:50 1025 30.27 854 25.22 -9.7 14.5 64 -15.3 4.5
20:55 1025 30.27 854 25.22 -9.4 15 64 -15.1 4.7
21:00 1025 30.27 854 25.22 -9.5 14.9 64 -15.1 4.8
21:05 1025 30.27 854 25.22 -9.6 14.8 64 -15.1 4.7
21:10 1025 30.27 854 25.22 -9.6 14.8 65 -15.1 4.9
21:15 1025 30.27 854 25.22 -10 14.1 66 -15.2 4.7
21:20 1025 30.27 854 25.22 -10.3 13.4 67 -15.3 4.5
21:25 1025 30.27 854 25.22 -10 14 65 -15.4 4.2
21:30 1025 30.27 854 25.22 -9 15.8 61 -15.1 4.8
21:35 1025 30.27 854 25.22 -9.1 15.6 61 -15.3 4.5
21:40 1025 30.27 854 25.22 -9.2 15.4 60 -15.6 4
21:45 1025 30.27 854 25.22 -9.3 15.2 61 -15.5 4.1
21:50 1025 30.27 854 25.22 -9.5 14.9 62 -15.5 4
21:55 1025 30.27 854 25.22 -9.6 14.7 63 -15.4 4.3
22:00 1025 30.27 854 25.22 -9.8 14.4 63 -15.6 4
22:05 1025 30.27 854 25.22 -9.8 14.3 63 -15.6 3.9
22:10 1025 30.27 854 25.22 -9.8 14.3 62 -15.8 3.6
22:15 1025 30.27 854 25.22 -9.9 14.3 62 -15.8 3.6
22:20 1024 30.24 854 25.22 -9.8 14.4 63 -15.6 3.9
22:25 1024 30.24 854 25.22 -10.2 13.7 65 -15.5 4.1
22:30 1025 30.27 854 25.22 -10.2 13.6 65 -15.7 3.8
22:35 1024 30.24 854 25.22 -9.7 14.5 63 -15.4 4.2
22:40 1024 30.24 854 25.22 -9 15.9 60 -15.4 4.2
22:45 1024 30.24 854 25.22 -8.9 16 60 -15.2 4.6
22:50 1024 30.24 853 25.19 -8.7 16.4 58 -15.5 4
22:55 1024 30.24 853 25.19 -8.5 16.8 57 -15.4 4.2
23:00 1024 30.24 853 25.19 -8.8 16.2 59 -15.5 4.2
23:05 1024 30.24 853 25.19 -9 15.8 60 -15.5 4.1
23:10 1024 30.24 853 25.19 -9.2 15.4 60 -15.7 3.8
23:15 1024 30.24 853 25.19 -9.3 15.3 59 -15.8 3.5
23:20 1024 30.24 853 25.19 -9.5 14.9 61 -15.7 3.8
23:25 1024 30.24 854 25.22 -9.8 14.3 63 -15.7 3.7
23:30 1024 30.24 854 25.22 -10.3 13.4 66 -15.6 3.9
23:35 1024 30.24 854 25.22 -10.6 13 66 -15.8 3.5
23:40 1024 30.24 854 25.22 -10.3 13.5 64 -15.9 3.4
23:45 1024 30.24 854 25.22 -10.3 13.6 64 -15.8 3.6
23:50 1024 30.24 854 25.22 -10.5 13.2 65 -15.8 3.5
23:55 1025 30.27 854 25.22 -10.9 12.5 66 -16.1 3.1
24:00 1024 30.24 854 25.22 -10.9 12.3 66 -16 3.2